createdAt,value
2023-03-11T00:01:12.024Z,8.73
2023-03-11T00:03:40.541Z,8.75
2023-03-11T00:06:08.942Z,8.76
2023-03-11T00:08:39.020Z,8.81
2023-03-11T00:11:09.618Z,8.85
2023-03-11T00:13:41.528Z,8.86
2023-03-11T00:16:10.556Z,8.87
2023-03-11T00:18:39.561Z,8.90
2023-03-11T00:21:15.361Z,8.93
2023-03-11T00:23:43.851Z,8.97
2023-03-11T00:26:12.328Z,8.99
2023-03-11T00:28:41.163Z,9.00
2023-03-11T00:31:13.901Z,9.00
2023-03-11T00:34:02.626Z,9.01
2023-03-11T00:36:32.186Z,9.03
2023-03-11T00:39:08.180Z,9.06
2023-03-11T00:41:39.743Z,9.07
2023-03-11T00:44:08.322Z,9.09
2023-03-11T00:46:36.659Z,9.12
2023-03-11T00:49:05.210Z,9.16
2023-03-11T00:51:34.313Z,9.18
2023-03-11T00:54:04.493Z,9.20
2023-03-11T00:56:33.830Z,9.22
2023-03-11T00:59:04.927Z,9.25
2023-03-11T01:01:33.844Z,9.27
2023-03-11T01:04:02.756Z,9.28
2023-03-11T01:06:44.914Z,9.28
2023-03-11T01:09:16.726Z,9.30
2023-03-11T01:11:50.044Z,9.31
2023-03-11T01:14:18.650Z,9.30
2023-03-11T01:16:47.220Z,9.30
2023-03-11T01:19:18.750Z,9.34
2023-03-11T01:21:48.880Z,9.39
2023-03-11T01:24:17.254Z,9.41
2023-03-11T01:26:48.460Z,9.42
2023-03-11T01:29:16.736Z,9.44
2023-03-11T01:31:45.163Z,9.48
2023-03-11T01:34:13.394Z,9.52
2023-03-11T01:36:47.779Z,9.52
2023-03-11T01:39:16.586Z,9.49
2023-03-11T01:41:44.849Z,9.48
2023-03-11T01:44:13.774Z,9.44
2023-03-11T01:46:52.265Z,9.41
2023-03-11T01:49:23.502Z,9.39
2023-03-11T01:52:04.082Z,9.38
2023-03-11T01:54:37.300Z,9.40
2023-03-11T01:57:06.691Z,9.42
2023-03-11T01:59:42.494Z,9.41
2023-03-11T02:02:20.431Z,9.41
2023-03-11T02:04:49.965Z,9.42
2023-03-11T02:07:18.569Z,9.43
2023-03-11T02:09:51.059Z,9.43
2023-03-11T02:12:19.688Z,9.45
2023-03-11T02:14:49.674Z,9.47
2023-03-11T02:17:22.372Z,9.49
2023-03-11T02:20:06.000Z,9.49
2023-03-11T02:22:34.523Z,9.48
2023-03-11T02:25:14.649Z,9.45
2023-03-11T02:27:49.240Z,9.41
2023-03-11T02:30:21.446Z,9.40
2023-03-11T02:32:51.291Z,9.38
2023-03-11T02:35:20.109Z,9.40
2023-03-11T02:37:50.105Z,9.39
2023-03-11T02:40:24.934Z,9.38
2023-03-11T02:42:58.292Z,9.36
2023-03-11T02:45:26.798Z,9.35
2023-03-11T02:47:55.502Z,9.32
2023-03-11T02:50:24.156Z,9.29
2023-03-11T02:52:52.458Z,9.24
2023-03-11T02:55:20.918Z,9.22
2023-03-11T02:57:49.462Z,9.21
2023-03-11T03:00:18.753Z,9.20
2023-03-11T03:02:53.595Z,9.19
2023-03-11T03:05:22.523Z,9.19
2023-03-11T03:07:51.561Z,9.20
2023-03-11T03:10:21.227Z,9.21
2023-03-11T03:12:56.220Z,9.23
2023-03-11T03:15:26.051Z,9.26
2023-03-11T03:17:56.173Z,9.29
2023-03-11T03:20:30.520Z,9.29
2023-03-11T03:23:00.999Z,9.30
2023-03-11T03:25:31.092Z,9.31
2023-03-11T03:28:01.833Z,9.30
2023-03-11T03:30:30.992Z,9.29
2023-03-11T03:33:00.497Z,9.27
2023-03-11T03:35:29.859Z,9.25
2023-03-11T03:38:08.095Z,9.20
2023-03-11T03:40:37.137Z,9.18
2023-03-11T03:43:06.123Z,9.18
2023-03-11T03:45:36.271Z,9.18
2023-03-11T03:48:05.062Z,9.19
2023-03-11T03:50:34.881Z,9.21
2023-03-11T03:53:03.276Z,9.22
2023-03-11T03:55:31.661Z,9.22
2023-03-11T03:58:00.624Z,9.23
2023-03-11T04:00:31.461Z,9.25
2023-03-11T04:03:04.164Z,9.25
2023-03-11T04:05:43.603Z,9.27
2023-03-11T04:08:12.854Z,9.28
2023-03-11T04:10:42.544Z,9.27
2023-03-11T04:13:11.599Z,9.26
2023-03-11T04:15:40.030Z,9.23
2023-03-11T04:18:23.217Z,9.20
2023-03-11T04:20:51.839Z,9.17
2023-03-11T04:23:26.105Z,9.15
2023-03-11T04:25:55.377Z,9.08
2023-03-11T04:28:23.916Z,9.03
2023-03-11T04:30:52.583Z,9.00
2023-03-11T04:33:24.382Z,8.98
2023-03-11T04:35:52.912Z,8.95
2023-03-11T04:38:22.261Z,8.90
2023-03-11T04:40:53.230Z,8.88
2023-03-11T04:43:23.739Z,8.82
2023-03-11T04:45:52.428Z,8.80
2023-03-11T04:48:21.763Z,8.78
2023-03-11T04:50:50.454Z,8.77
2023-03-11T04:53:19.694Z,8.75
2023-03-11T04:55:48.730Z,8.76
2023-03-11T04:58:17.099Z,8.77
2023-03-11T05:00:46.525Z,8.77
2023-03-11T05:03:15.654Z,8.75
2023-03-11T05:05:46.148Z,8.74
2023-03-11T05:08:15.820Z,8.74
2023-03-11T05:10:44.706Z,8.78
2023-03-11T05:13:16.137Z,8.83
2023-03-11T05:15:46.534Z,8.90
2023-03-11T05:18:15.533Z,8.96
2023-03-11T05:20:46.817Z,9.00
2023-03-11T05:23:15.716Z,9.01
2023-03-11T05:25:45.269Z,9.08
2023-03-11T05:28:14.341Z,9.19
2023-03-11T05:30:47.982Z,9.29
2023-03-11T05:33:21.067Z,9.39
2023-03-11T05:35:52.126Z,9.44
2023-03-11T05:38:21.462Z,9.50
2023-03-11T05:40:49.914Z,9.56
2023-03-11T05:43:18.336Z,9.63
2023-03-11T05:45:54.193Z,9.71
2023-03-11T05:48:23.318Z,9.81
2023-03-11T05:50:51.810Z,9.87
2023-03-11T05:53:22.398Z,9.91
2023-03-11T05:55:58.142Z,9.91
2023-03-11T05:58:29.291Z,9.97
2023-03-11T06:00:59.415Z,10.01
2023-03-11T06:03:34.995Z,10.06
2023-03-11T06:06:04.647Z,10.11
2023-03-11T06:08:35.193Z,10.14
2023-03-11T06:11:08.942Z,10.16
2023-03-11T06:13:41.821Z,10.22
2023-03-11T06:16:11.761Z,10.32
2023-03-11T06:18:42.903Z,10.43
2023-03-11T06:21:20.508Z,10.55
2023-03-11T06:23:50.494Z,10.67
2023-03-11T06:26:20.496Z,10.77
2023-03-11T06:28:50.214Z,10.82
2023-03-11T06:31:28.799Z,10.82
2023-03-11T06:34:01.701Z,10.82
2023-03-11T06:36:30.913Z,10.83
2023-03-11T06:39:01.873Z,10.86
2023-03-11T06:41:33.895Z,10.88
2023-03-11T06:44:04.423Z,10.94
2023-03-11T06:46:33.702Z,11.03
2023-03-11T06:49:05.534Z,11.09
2023-03-11T06:51:35.854Z,11.12
2023-03-11T06:54:04.500Z,11.14
2023-03-11T06:56:40.339Z,11.18
2023-03-11T06:59:09.845Z,11.21
2023-03-11T07:01:38.177Z,11.24
2023-03-11T07:04:07.963Z,11.25
2023-03-11T07:06:37.679Z,11.31
2023-03-11T07:09:10.377Z,11.39
2023-03-11T07:11:41.706Z,11.47
2023-03-11T07:14:14.229Z,11.58
2023-03-11T07:16:45.488Z,11.66
2023-03-11T07:19:23.514Z,11.68
2023-03-11T07:21:52.045Z,11.69
2023-03-11T07:24:21.010Z,11.67
2023-03-11T07:26:50.085Z,11.60
2023-03-11T07:29:18.596Z,11.61
2023-03-11T07:31:49.657Z,11.66
2023-03-11T07:34:19.238Z,11.74
2023-03-11T07:36:48.638Z,11.73
2023-03-11T07:39:18.747Z,11.69
2023-03-11T07:41:47.418Z,11.67
2023-03-11T07:44:17.386Z,11.71
2023-03-11T07:46:46.070Z,11.74
2023-03-11T07:49:14.385Z,11.79
2023-03-11T07:51:45.017Z,11.80
2023-03-11T07:54:13.564Z,11.81
2023-03-11T07:56:42.361Z,11.83
2023-03-11T07:59:10.784Z,11.80
2023-03-11T08:01:41.532Z,11.77
2023-03-11T08:04:14.434Z,11.81
2023-03-11T08:06:44.640Z,11.84
2023-03-11T08:09:13.034Z,11.90
2023-03-11T08:11:42.934Z,11.98
2023-03-11T08:14:11.403Z,12.04
2023-03-11T08:16:42.425Z,12.07
2023-03-11T08:19:12.434Z,12.05
2023-03-11T08:21:41.016Z,12.04
2023-03-11T08:24:12.492Z,12.07
2023-03-11T08:26:41.490Z,12.08
2023-03-11T08:29:11.287Z,12.06
2023-03-11T08:31:39.909Z,12.07
2023-03-11T08:34:10.674Z,12.08
2023-03-11T08:36:40.040Z,12.12
2023-03-11T08:39:08.368Z,12.22
2023-03-11T08:41:36.736Z,12.35
2023-03-11T08:44:05.428Z,12.44
2023-03-11T08:46:35.556Z,12.52
2023-03-11T08:49:05.930Z,12.56
2023-03-11T08:51:34.685Z,12.53
2023-03-11T08:54:10.288Z,12.53
2023-03-11T08:56:39.674Z,12.56
2023-03-11T08:59:08.756Z,12.67
2023-03-11T09:01:37.854Z,12.79
2023-03-11T09:04:06.155Z,12.95
2023-03-11T09:06:44.681Z,13.11
2023-03-11T09:09:14.052Z,13.23
2023-03-11T09:11:42.833Z,13.36
2023-03-11T09:14:11.202Z,13.47
2023-03-11T09:16:39.914Z,13.53
2023-03-11T09:19:08.422Z,13.48
2023-03-11T09:21:37.275Z,13.39
2023-03-11T09:24:06.217Z,13.34
2023-03-11T09:26:34.696Z,13.33
2023-03-11T09:29:03.157Z,13.32
2023-03-11T09:31:31.508Z,13.27
2023-03-11T09:33:59.931Z,13.21
2023-03-11T09:36:29.157Z,13.15
2023-03-11T09:38:57.843Z,13.06
2023-03-11T09:41:27.141Z,13.01
2023-03-11T09:44:21.684Z,12.97
2023-03-11T09:47:00.372Z,12.98
2023-03-11T09:49:44.490Z,13.02
2023-03-11T09:52:24.835Z,13.01
2023-03-11T09:54:53.661Z,13.04
2023-03-11T09:57:34.290Z,13.10
2023-03-11T10:00:04.500Z,13.11
2023-03-11T10:02:44.748Z,13.08
2023-03-11T10:05:14.676Z,13.09
2023-03-11T10:07:50.039Z,13.12
2023-03-11T10:10:18.529Z,13.15
2023-03-11T10:13:04.466Z,13.16
2023-03-11T10:15:39.949Z,13.09
2023-03-11T10:18:28.315Z,13.01
2023-03-11T10:21:32.046Z,12.93
2023-03-11T10:24:14.551Z,12.79
2023-03-11T10:26:55.324Z,12.69
2023-03-11T10:29:28.326Z,12.53
2023-03-11T10:32:13.892Z,12.41
2023-03-11T10:34:49.401Z,12.29
2023-03-11T10:37:19.176Z,12.17
2023-03-11T10:39:49.821Z,12.09
2023-03-11T10:42:23.610Z,12.05
2023-03-11T10:44:52.695Z,12.04
2023-03-11T10:47:25.573Z,12.06
2023-03-11T10:49:53.966Z,12.02
2023-03-11T10:52:26.443Z,11.93
2023-03-11T10:55:03.028Z,11.87
2023-03-11T10:57:34.782Z,11.87
2023-03-11T11:00:17.564Z,11.88
2023-03-11T11:02:58.467Z,11.86
2023-03-11T11:05:28.452Z,11.83
2023-03-11T11:08:07.609Z,11.84
2023-03-11T11:10:51.600Z,11.88
2023-03-11T11:13:23.859Z,11.91
2023-03-11T11:16:01.089Z,11.95
2023-03-11T11:18:52.479Z,12.03
2023-03-11T11:21:41.387Z,12.08
2023-03-11T11:24:18.907Z,12.09
2023-03-11T11:27:13.212Z,12.07
2023-03-11T11:29:42.081Z,12.05
2023-03-11T11:32:19.387Z,12.02
2023-03-11T11:35:05.427Z,11.97
2023-03-11T11:37:38.402Z,11.88
2023-03-11T11:40:11.751Z,11.81
2023-03-11T11:42:46.070Z,11.73
2023-03-11T11:45:38.718Z,11.65
2023-03-11T11:48:20.361Z,11.56
2023-03-11T11:50:52.854Z,11.50
2023-03-11T11:53:21.299Z,11.44
2023-03-11T11:55:53.263Z,11.39
2023-03-11T11:58:21.754Z,11.30
2023-03-11T12:00:53.165Z,11.25
2023-03-11T12:03:48.643Z,11.16
2023-03-11T12:06:17.066Z,11.09
2023-03-11T12:09:05.885Z,11.07
2023-03-11T12:11:41.830Z,11.13
2023-03-11T12:14:29.346Z,11.23
2023-03-11T12:16:59.120Z,11.33
2023-03-11T12:19:32.617Z,11.47
2023-03-11T12:22:11.076Z,11.56
2023-03-11T12:25:05.572Z,11.61
2023-03-11T12:28:09.445Z,11.61
2023-03-11T12:30:41.906Z,11.66
2023-03-11T12:33:17.024Z,11.72
2023-03-11T12:35:54.038Z,11.76
2023-03-11T12:38:28.992Z,11.83
2023-03-11T12:40:59.457Z,11.88
2023-03-11T12:43:33.635Z,11.91
2023-03-11T12:46:02.141Z,11.90
2023-03-11T12:48:46.718Z,11.92
2023-03-11T12:51:27.313Z,12.04
2023-03-11T12:53:55.945Z,12.18
2023-03-11T12:56:40.454Z,12.26
2023-03-11T12:59:17.778Z,12.34
2023-03-11T13:01:58.816Z,12.44
2023-03-11T13:04:37.002Z,12.53
2023-03-11T13:07:23.649Z,12.66
2023-03-11T13:10:39.566Z,12.77
2023-03-11T13:13:33.656Z,12.89
2023-03-11T13:16:14.221Z,13.03
2023-03-11T13:18:43.602Z,13.13
2023-03-11T13:21:27.946Z,13.18
2023-03-11T13:24:36.105Z,13.20
2023-03-11T13:27:10.110Z,13.19
2023-03-11T13:29:52.524Z,13.24
2023-03-11T13:32:59.983Z,13.28
2023-03-11T13:35:52.629Z,13.33
2023-03-11T13:38:29.761Z,13.35
2023-03-11T13:40:58.553Z,13.36
2023-03-11T13:43:26.983Z,13.27
2023-03-11T13:46:01.318Z,13.16
2023-03-11T13:48:38.321Z,13.03
2023-03-11T13:51:31.729Z,12.96
2023-03-11T13:54:03.284Z,12.91
2023-03-11T13:56:33.096Z,12.90
2023-03-11T13:59:23.916Z,12.91
2023-03-11T14:01:55.912Z,12.92
2023-03-11T14:04:27.321Z,12.92
2023-03-11T14:06:55.672Z,12.85
2023-03-11T14:09:25.538Z,12.75
2023-03-11T14:11:54.914Z,12.63
2023-03-11T14:14:35.456Z,12.48
2023-03-11T14:17:04.214Z,12.33
2023-03-11T14:19:33.321Z,12.21
2023-03-11T14:22:01.856Z,12.12
2023-03-11T14:24:30.512Z,12.08
2023-03-11T14:27:01.315Z,12.00
2023-03-11T14:29:34.194Z,11.92
2023-03-11T14:32:26.077Z,11.84
2023-03-11T14:34:54.638Z,11.76
2023-03-11T14:37:27.075Z,11.73
2023-03-11T14:39:55.354Z,11.71
2023-03-11T14:42:34.168Z,11.59
2023-03-11T14:45:14.657Z,11.42
2023-03-11T14:48:18.221Z,11.26
2023-03-11T14:50:49.490Z,11.10
2023-03-11T14:53:45.946Z,10.96
2023-03-11T14:56:18.582Z,10.84
2023-03-11T14:59:10.060Z,10.74
2023-03-11T15:01:43.873Z,10.62
2023-03-11T15:04:35.727Z,10.56
2023-03-11T15:07:04.650Z,10.53
2023-03-11T15:09:33.033Z,10.52
2023-03-11T15:12:05.356Z,10.50
2023-03-11T15:14:37.242Z,10.45
2023-03-11T15:17:32.997Z,10.41
2023-03-11T15:20:02.474Z,10.35
2023-03-11T15:22:38.154Z,10.32
2023-03-11T15:25:16.839Z,10.31
2023-03-11T15:27:45.153Z,10.24
2023-03-11T15:30:22.515Z,10.17
2023-03-11T15:32:52.116Z,10.13
2023-03-11T15:35:20.526Z,10.10
2023-03-11T15:37:50.481Z,10.06
2023-03-11T15:40:42.377Z,10.02
2023-03-11T15:43:34.235Z,10.00
2023-03-11T15:46:02.991Z,9.98
2023-03-11T15:48:31.864Z,9.98
2023-03-11T15:51:00.595Z,9.96
2023-03-11T15:53:30.364Z,9.96
2023-03-11T15:56:07.958Z,9.99
2023-03-11T15:58:39.413Z,10.00
2023-03-11T16:01:09.516Z,9.96
2023-03-11T16:03:39.354Z,9.93
2023-03-11T16:06:07.987Z,9.89
2023-03-11T16:08:36.953Z,9.83
2023-03-11T16:11:05.911Z,9.80
2023-03-11T16:13:36.768Z,9.76
2023-03-11T16:16:05.726Z,9.72
2023-03-11T16:18:35.913Z,9.69
2023-03-11T16:21:11.696Z,9.67
2023-03-11T16:23:51.096Z,9.66
2023-03-11T16:26:21.120Z,9.63
2023-03-11T16:28:49.439Z,9.62
2023-03-11T16:31:17.780Z,9.62
2023-03-11T16:33:48.328Z,9.62
2023-03-11T16:36:16.703Z,9.61
2023-03-11T16:38:49.877Z,9.62
2023-03-11T16:41:18.298Z,9.63
2023-03-11T16:43:46.616Z,9.66
2023-03-11T16:46:14.999Z,9.69
2023-03-11T16:48:43.707Z,9.70
2023-03-11T16:51:15.833Z,9.69
2023-03-11T16:53:44.388Z,9.69
2023-03-11T16:56:15.779Z,9.68
2023-03-11T16:58:48.335Z,9.67
2023-03-11T17:01:18.098Z,9.68
2023-03-11T17:03:50.031Z,9.71
2023-03-11T17:06:18.544Z,9.74
2023-03-11T17:08:51.703Z,9.73
2023-03-11T17:11:21.698Z,9.69
2023-03-11T17:13:54.221Z,9.65
2023-03-11T17:16:23.995Z,9.63
2023-03-11T17:18:53.981Z,9.63
2023-03-11T17:21:22.654Z,9.61
2023-03-11T17:23:51.816Z,9.55
2023-03-11T17:26:26.714Z,9.52
2023-03-11T17:28:55.335Z,9.52
2023-03-11T17:31:23.801Z,9.51
2023-03-11T17:33:52.403Z,9.50
2023-03-11T17:36:20.678Z,9.50
2023-03-11T17:38:54.227Z,9.52
2023-03-11T17:41:23.796Z,9.51
2023-03-11T17:43:52.266Z,9.50
2023-03-11T17:46:22.672Z,9.49
2023-03-11T17:48:51.263Z,9.49
2023-03-11T17:51:21.466Z,9.52
2023-03-11T17:53:50.396Z,9.52
2023-03-11T17:56:21.982Z,9.51
2023-03-11T17:58:51.865Z,9.51
2023-03-11T18:01:24.361Z,9.52
2023-03-11T18:03:53.171Z,9.56
2023-03-11T18:06:22.313Z,9.59
2023-03-11T18:08:55.214Z,9.62
2023-03-11T18:11:26.936Z,9.65
2023-03-11T18:13:55.452Z,9.66
2023-03-11T18:16:25.289Z,9.69
2023-03-11T18:18:56.766Z,9.69
2023-03-11T18:21:28.191Z,9.68
2023-03-11T18:24:00.039Z,9.66
2023-03-11T18:26:31.406Z,9.64
2023-03-11T18:29:00.313Z,9.64
2023-03-11T18:31:29.913Z,9.63
2023-03-11T18:34:05.322Z,9.63
2023-03-11T18:36:37.620Z,9.63
2023-03-11T18:39:11.391Z,9.65
2023-03-11T18:41:42.975Z,9.67
2023-03-11T18:44:16.269Z,9.70
2023-03-11T18:46:46.213Z,9.71
2023-03-11T18:49:14.557Z,9.72
2023-03-11T18:51:44.096Z,9.74
2023-03-11T18:54:12.829Z,9.75
2023-03-11T18:56:41.240Z,9.74
2023-03-11T18:59:12.208Z,9.71
2023-03-11T19:01:40.734Z,9.72
2023-03-11T19:04:09.637Z,9.72
2023-03-11T19:06:37.866Z,9.75
2023-03-11T19:09:06.817Z,9.78
2023-03-11T19:11:35.484Z,9.79
2023-03-11T19:14:04.528Z,9.81
2023-03-11T19:16:32.901Z,9.83
2023-03-11T19:19:02.796Z,9.85
2023-03-11T19:21:31.035Z,9.86
2023-03-11T19:24:00.417Z,9.87
2023-03-11T19:26:43.682Z,9.87
2023-03-11T19:29:14.183Z,9.87
2023-03-11T19:31:46.557Z,9.87
2023-03-11T19:34:14.922Z,9.88
2023-03-11T19:36:43.145Z,9.91
2023-03-11T19:39:11.543Z,9.92
2023-03-11T19:41:40.016Z,9.92
2023-03-11T19:44:11.912Z,9.91
2023-03-11T19:46:42.817Z,9.95
2023-03-11T19:49:11.146Z,9.98
2023-03-11T19:51:49.494Z,9.98
2023-03-11T19:54:19.142Z,9.97
2023-03-11T19:56:50.633Z,9.96
2023-03-11T19:59:19.308Z,9.94
2023-03-11T20:01:47.918Z,9.93
2023-03-11T20:04:16.729Z,9.93
2023-03-11T20:06:45.647Z,9.93
2023-03-11T20:09:15.929Z,9.91
2023-03-11T20:11:45.856Z,9.94
2023-03-11T20:14:16.214Z,9.98
2023-03-11T20:16:44.535Z,10.03
2023-03-11T20:19:13.867Z,10.08
2023-03-11T20:21:44.666Z,10.08
2023-03-11T20:24:15.556Z,10.09
2023-03-11T20:26:43.995Z,10.12
2023-03-11T20:29:12.400Z,10.16
2023-03-11T20:31:41.813Z,10.18
2023-03-11T20:34:11.154Z,10.25
2023-03-11T20:36:43.267Z,10.34
2023-03-11T20:39:11.920Z,10.39
2023-03-11T20:41:40.616Z,10.44
2023-03-11T20:44:09.340Z,10.47
2023-03-11T20:46:41.944Z,10.50
2023-03-11T20:49:11.148Z,10.55
2023-03-11T20:51:41.816Z,10.62
2023-03-11T20:54:16.819Z,10.66
2023-03-11T20:56:46.395Z,10.67
2023-03-11T20:59:15.304Z,10.66
2023-03-11T21:01:43.753Z,10.61
2023-03-11T21:04:12.500Z,10.53
2023-03-11T21:06:41.460Z,10.44
2023-03-11T21:09:13.743Z,10.35
2023-03-11T21:11:42.564Z,10.27
2023-03-11T21:14:11.233Z,10.20
2023-03-11T21:16:43.143Z,10.15
2023-03-11T21:19:13.719Z,10.11
2023-03-11T21:21:43.168Z,10.09
2023-03-11T21:24:11.895Z,10.08
2023-03-11T21:26:40.231Z,10.02
2023-03-11T21:29:09.237Z,10.01
2023-03-11T21:31:37.615Z,10.06
2023-03-11T21:34:06.253Z,10.07
2023-03-11T21:36:38.213Z,10.05
2023-03-11T21:39:07.274Z,10.05
2023-03-11T21:41:35.669Z,10.04
2023-03-11T21:44:08.844Z,10.04
2023-03-11T21:46:37.558Z,10.05
2023-03-11T21:49:06.292Z,10.08
2023-03-11T21:51:35.722Z,10.11
2023-03-11T21:54:05.492Z,10.12
2023-03-11T21:56:35.391Z,10.17
2023-03-11T21:59:04.811Z,10.21
2023-03-11T22:01:35.708Z,10.23
2023-03-11T22:04:04.432Z,10.24
2023-03-11T22:06:33.677Z,10.05
2023-03-11T22:09:02.421Z,9.72
2023-03-11T22:11:32.507Z,9.28
2023-03-11T22:14:01.499Z,8.83
2023-03-11T22:16:30.834Z,8.43
2023-03-11T22:19:00.198Z,8.11
2023-03-11T22:21:29.190Z,7.89
2023-03-11T22:23:57.462Z,7.74
2023-03-11T22:26:26.474Z,7.64
2023-03-11T22:28:55.186Z,7.54
2023-03-11T22:31:23.652Z,7.47
2023-03-11T22:33:54.029Z,7.41
2023-03-11T22:36:22.498Z,7.37
2023-03-11T22:38:50.932Z,7.35
2023-03-11T22:41:20.672Z,7.32
2023-03-11T22:43:48.948Z,7.30
2023-03-11T22:46:17.475Z,7.30
2023-03-11T22:48:46.414Z,7.31
2023-03-11T22:51:15.216Z,7.31
2023-03-11T22:53:43.975Z,7.29
2023-03-11T22:56:14.570Z,7.26
2023-03-11T22:58:43.900Z,7.25
2023-03-11T23:01:12.838Z,7.23
2023-03-11T23:03:42.771Z,7.23
2023-03-11T23:06:14.524Z,7.21
2023-03-11T23:08:43.168Z,7.19
2023-03-11T23:11:15.097Z,7.15
2023-03-11T23:13:43.806Z,7.12
2023-03-11T23:16:16.632Z,7.10
2023-03-11T23:18:51.279Z,7.07
2023-03-11T23:21:28.565Z,7.06
2023-03-11T23:23:57.144Z,7.03
2023-03-11T23:26:25.456Z,7.02
2023-03-11T23:28:54.535Z,6.97
2023-03-11T23:31:28.221Z,6.92
2023-03-11T23:33:57.738Z,6.89
2023-03-11T23:36:30.450Z,6.87
2023-03-11T23:39:03.083Z,6.84
2023-03-11T23:41:31.477Z,6.82
2023-03-11T23:43:59.756Z,6.80
2023-03-11T23:46:28.133Z,6.80
2023-03-11T23:48:56.466Z,6.80
2023-03-11T23:51:24.981Z,6.79
2023-03-11T23:53:53.296Z,6.79
2023-03-11T23:56:24.143Z,6.79
2023-03-11T23:58:52.448Z,6.76
